createdAt,value
2019-01-24T00:00:13.703Z,29.50
2019-01-24T00:02:44.620Z,32.17
2019-01-24T00:05:15.950Z,29.77
2019-01-24T00:07:47.157Z,26.07
2019-01-24T00:10:18.233Z,28.47
2019-01-24T00:12:49.216Z,26.30
2019-01-24T00:15:20.263Z,26.00
2019-01-24T00:17:51.228Z,25.60
2019-01-24T00:20:22.300Z,26.70
2019-01-24T00:22:53.315Z,26.63
2019-01-24T00:25:24.379Z,27.07
2019-01-24T00:27:55.342Z,26.07
2019-01-24T00:30:26.342Z,25.40
2019-01-24T00:32:57.253Z,26.40
2019-01-24T00:35:28.162Z,25.17
2019-01-24T00:37:59.120Z,27.97
2019-01-24T00:40:30.355Z,24.60
2019-01-24T00:43:01.556Z,25.17
2019-01-24T00:45:32.529Z,23.93
2019-01-24T00:48:03.520Z,26.53
2019-01-24T00:50:34.448Z,30.00
2019-01-24T00:53:05.482Z,25.13
2019-01-24T00:55:36.397Z,28.03
2019-01-24T00:58:07.325Z,26.63
2019-01-24T01:00:38.489Z,25.53
2019-01-24T01:03:09.419Z,24.77
2019-01-24T01:05:40.336Z,26.17
2019-01-24T01:08:11.306Z,23.97
2019-01-24T01:10:42.306Z,23.90
2019-01-24T01:13:13.373Z,22.40
2019-01-24T01:15:44.655Z,23.37
2019-01-24T01:18:15.578Z,23.60
2019-01-24T01:20:46.525Z,24.30
2019-01-24T01:23:17.488Z,25.33
2019-01-24T01:25:48.425Z,22.10
2019-01-24T01:28:19.373Z,19.20
2019-01-24T01:30:50.399Z,19.90
2019-01-24T01:33:21.348Z,21.50
2019-01-24T01:35:52.323Z,21.37
2019-01-24T01:38:23.598Z,21.63
2019-01-24T01:40:54.486Z,20.50
2019-01-24T01:43:25.391Z,17.40
2019-01-24T01:45:56.401Z,21.50
2019-01-24T01:48:27.380Z,20.40
2019-01-24T01:50:58.308Z,21.50
2019-01-24T01:53:29.311Z,19.73
2019-01-24T01:56:00.206Z,20.33
2019-01-24T01:58:31.126Z,19.13
2019-01-24T02:01:02.383Z,19.60
2019-01-24T02:03:33.290Z,20.40
2019-01-24T02:06:04.320Z,16.50
2019-01-24T02:08:35.649Z,19.70
2019-01-24T02:11:07.061Z,19.63
2019-01-24T02:13:38.029Z,17.23
2019-01-24T02:16:09.305Z,18.97
2019-01-24T02:18:40.242Z,18.63
2019-01-24T02:21:11.443Z,17.83
2019-01-24T02:23:42.724Z,17.33
2019-01-24T02:26:14.051Z,18.60
2019-01-24T02:28:45.111Z,18.30
2019-01-24T02:31:16.093Z,18.30
2019-01-24T02:33:46.998Z,19.50
2019-01-24T02:36:17.915Z,20.57
2019-01-24T02:38:48.907Z,18.57
2019-01-24T02:41:20.163Z,17.87
2019-01-24T02:43:51.073Z,19.03
2019-01-24T02:46:22.351Z,17.17
2019-01-24T02:48:53.602Z,18.53
2019-01-24T02:51:24.562Z,16.77
2019-01-24T02:53:55.566Z,17.43
2019-01-24T02:56:26.939Z,17.87
2019-01-24T02:58:57.897Z,19.77
2019-01-24T03:01:29.201Z,19.70
2019-01-24T03:04:00.727Z,20.03
2019-01-24T03:06:31.800Z,18.27
2019-01-24T03:09:02.771Z,18.97
2019-01-24T03:11:34.042Z,19.07
2019-01-24T03:14:05.462Z,18.63
2019-01-24T03:16:36.585Z,20.47
2019-01-24T03:19:07.497Z,20.17
2019-01-24T03:21:38.823Z,20.10
2019-01-24T03:24:09.941Z,19.40
2019-01-24T03:26:40.865Z,20.07
2019-01-24T03:29:12.079Z,17.53
2019-01-24T03:31:43.053Z,19.27
2019-01-24T03:34:13.962Z,18.97
2019-01-24T03:36:44.867Z,20.63
2019-01-24T03:39:15.814Z,17.77
2019-01-24T03:41:46.759Z,17.27
2019-01-24T03:44:17.978Z,21.20
2019-01-24T03:46:49.016Z,19.63
2019-01-24T03:49:19.929Z,18.00
2019-01-24T03:51:50.840Z,20.07
2019-01-24T03:54:22.131Z,18.43
2019-01-24T03:56:53.070Z,17.60
2019-01-24T03:59:24.277Z,16.70
2019-01-24T04:01:55.518Z,19.90
2019-01-24T04:04:26.445Z,19.17
2019-01-24T04:06:57.465Z,19.53
2019-01-24T04:09:28.436Z,17.37
2019-01-24T04:11:59.406Z,19.00
2019-01-24T04:14:30.406Z,18.70
2019-01-24T04:17:01.761Z,20.43
2019-01-24T04:19:32.775Z,19.07
2019-01-24T04:22:03.740Z,17.97
2019-01-24T04:24:34.711Z,20.47
2019-01-24T04:27:05.689Z,19.23
2019-01-24T04:29:36.964Z,18.57
2019-01-24T04:32:07.954Z,18.57
2019-01-24T04:34:38.892Z,17.53
2019-01-24T04:37:09.840Z,18.47
2019-01-24T04:39:40.909Z,19.63
2019-01-24T04:42:11.843Z,19.70
2019-01-24T04:44:42.775Z,18.10
2019-01-24T04:47:14.369Z,19.60
2019-01-24T04:49:45.316Z,19.33
2019-01-24T04:52:16.228Z,19.13
2019-01-24T04:54:47.671Z,19.37
2019-01-24T04:57:18.587Z,18.40
2019-01-24T04:59:49.522Z,20.77
2019-01-24T05:02:20.475Z,20.30
2019-01-24T05:04:51.374Z,19.50
2019-01-24T05:07:22.295Z,20.50
2019-01-24T05:09:53.254Z,20.90
2019-01-24T05:12:24.191Z,20.67
2019-01-24T05:14:55.163Z,21.07
2019-01-24T05:17:26.428Z,19.70
2019-01-24T05:19:57.646Z,21.07
2019-01-24T05:22:28.579Z,21.47
2019-01-24T05:24:59.524Z,21.87
2019-01-24T05:27:30.838Z,22.33
2019-01-24T05:30:02.100Z,21.97
2019-01-24T05:32:33.098Z,23.00
2019-01-24T05:35:04.449Z,21.17
2019-01-24T05:37:35.408Z,22.33
2019-01-24T05:40:07.595Z,19.63
2019-01-24T05:42:38.575Z,23.10
2019-01-24T05:45:10.209Z,21.23
2019-01-24T05:47:41.183Z,19.93
2019-01-24T05:50:12.657Z,19.13
2019-01-24T05:52:43.684Z,21.73
2019-01-24T05:55:15.037Z,21.50
2019-01-24T05:57:46.012Z,22.77
2019-01-24T06:00:25.686Z,20.80
2019-01-24T06:02:57.252Z,23.47
2019-01-24T06:05:28.232Z,21.43
2019-01-24T06:07:59.269Z,21.87
2019-01-24T06:10:30.477Z,22.07
2019-01-24T06:13:01.419Z,23.93
2019-01-24T06:15:32.432Z,21.47
2019-01-24T06:18:03.467Z,24.03
2019-01-24T06:20:34.386Z,21.03
2019-01-24T06:23:05.478Z,22.33
2019-01-24T06:25:36.552Z,21.97
2019-01-24T06:28:08.125Z,22.63
2019-01-24T06:30:39.126Z,23.73
2019-01-24T06:33:10.081Z,25.07
2019-01-24T06:35:41.100Z,31.17
2019-01-24T06:38:12.397Z,38.47
2019-01-24T06:40:43.366Z,42.03
2019-01-24T06:43:15.256Z,50.50
2019-01-24T06:45:46.306Z,26.17
2019-01-24T06:48:17.313Z,47.50
2019-01-24T06:50:48.257Z,37.90
2019-01-24T06:53:19.554Z,45.23
2019-01-24T06:55:50.754Z,26.53
2019-01-24T06:58:21.714Z,25.13
2019-01-24T07:00:52.787Z,23.40
2019-01-24T07:03:23.739Z,29.47
2019-01-24T07:05:55.525Z,27.67
2019-01-24T07:08:26.694Z,34.00
2019-01-24T07:10:57.648Z,29.43
2019-01-24T07:13:28.622Z,27.07
2019-01-24T07:15:59.596Z,28.30
2019-01-24T07:18:30.632Z,29.23
2019-01-24T07:21:01.828Z,23.90
2019-01-24T07:23:32.787Z,23.63
2019-01-24T07:26:03.711Z,21.90
2019-01-24T07:28:34.644Z,23.30
2019-01-24T07:31:05.753Z,23.20
2019-01-24T07:33:36.651Z,23.53
2019-01-24T07:36:07.991Z,22.40
2019-01-24T07:38:38.959Z,23.10
2019-01-24T07:41:10.160Z,23.37
2019-01-24T07:43:41.078Z,24.47
2019-01-24T07:46:12.423Z,24.37
2019-01-24T07:48:43.352Z,24.30
2019-01-24T07:51:14.629Z,23.17
2019-01-24T07:53:46.461Z,21.73
2019-01-24T07:56:17.412Z,23.70
2019-01-24T07:58:48.658Z,23.57
2019-01-24T08:01:19.940Z,23.17
2019-01-24T08:03:50.949Z,22.80
2019-01-24T08:06:22.001Z,23.57
2019-01-24T08:08:52.975Z,24.87
2019-01-24T08:11:24.219Z,23.83
2019-01-24T08:13:55.132Z,23.50
2019-01-24T08:16:26.109Z,24.03
2019-01-24T08:18:57.337Z,22.70
2019-01-24T08:21:28.294Z,25.67
2019-01-24T08:23:59.218Z,23.40
2019-01-24T08:26:30.194Z,24.50
2019-01-24T08:29:01.424Z,24.57
2019-01-24T08:31:32.353Z,22.93
2019-01-24T08:34:03.324Z,26.50
2019-01-24T08:36:34.248Z,23.70
2019-01-24T08:39:08.877Z,23.20
2019-01-24T08:41:39.789Z,24.80
2019-01-24T08:44:10.746Z,26.20
2019-01-24T08:46:41.965Z,24.33
2019-01-24T08:49:12.947Z,23.57
2019-01-24T08:51:44.240Z,23.70
2019-01-24T08:54:15.166Z,26.00
2019-01-24T08:56:46.078Z,26.00
2019-01-24T08:59:17.028Z,25.70
2019-01-24T09:01:47.934Z,23.83
2019-01-24T09:04:18.972Z,24.97
2019-01-24T09:06:49.942Z,26.40
2019-01-24T09:09:20.852Z,24.83
2019-01-24T09:11:51.799Z,24.50
2019-01-24T09:14:22.726Z,25.13
2019-01-24T09:16:53.718Z,24.13
2019-01-24T09:19:24.666Z,26.30
2019-01-24T09:21:55.605Z,25.83
2019-01-24T09:24:26.855Z,23.80
2019-01-24T09:26:57.871Z,23.63
2019-01-24T09:29:28.925Z,23.93
2019-01-24T09:32:00.156Z,27.83
2019-01-24T09:34:31.105Z,24.40
2019-01-24T09:37:02.022Z,26.47
2019-01-24T09:39:32.923Z,34.00
2019-01-24T09:42:03.857Z,25.50
2019-01-24T09:44:34.769Z,24.53
2019-01-24T09:47:05.820Z,25.50
2019-01-24T09:49:36.740Z,32.10
2019-01-24T09:52:07.663Z,29.20
2019-01-24T09:54:38.618Z,43.97
2019-01-24T09:57:09.546Z,36.13
2019-01-24T09:59:40.511Z,26.83
2019-01-24T10:02:11.761Z,23.67
2019-01-24T10:04:42.703Z,27.73
2019-01-24T10:07:13.743Z,31.07
2019-01-24T10:09:44.986Z,37.07
2019-01-24T10:12:15.967Z,28.93
2019-01-24T10:14:46.865Z,26.03
2019-01-24T10:17:17.777Z,24.47
2019-01-24T10:19:48.804Z,23.67
2019-01-24T10:22:19.738Z,27.23
2019-01-24T10:24:51.029Z,23.80
2019-01-24T10:27:21.943Z,23.33
2019-01-24T10:29:53.213Z,23.90
2019-01-24T10:32:24.457Z,26.20
2019-01-24T10:34:55.376Z,24.17
2019-01-24T10:37:26.421Z,25.00
2019-01-24T10:39:57.406Z,22.83
2019-01-24T10:42:28.303Z,23.63
2019-01-24T10:44:59.536Z,24.20
2019-01-24T10:47:30.492Z,25.37
2019-01-24T10:50:01.468Z,25.40
2019-01-24T10:52:32.393Z,24.70
2019-01-24T10:55:03.300Z,26.17
2019-01-24T10:57:34.629Z,23.20
2019-01-24T11:00:08.554Z,24.40
2019-01-24T11:02:39.633Z,23.07
2019-01-24T11:05:12.789Z,25.33
2019-01-24T11:07:43.809Z,25.10
2019-01-24T11:10:16.411Z,26.40
2019-01-24T11:12:47.902Z,25.17
2019-01-24T11:15:21.700Z,24.20
2019-01-24T11:17:52.991Z,22.60
2019-01-24T11:20:24.103Z,23.47
2019-01-24T11:22:55.096Z,21.93
2019-01-24T11:25:26.189Z,23.40
2019-01-24T11:27:57.461Z,24.90
2019-01-24T11:30:29.731Z,22.60
2019-01-24T11:33:01.446Z,22.90
2019-01-24T11:35:34.973Z,22.83
2019-01-24T11:38:07.226Z,23.77
2019-01-24T11:40:38.264Z,21.50
2019-01-24T11:43:09.416Z,21.57
2019-01-24T11:45:44.300Z,24.70
2019-01-24T11:48:15.509Z,23.50
2019-01-24T11:50:46.417Z,24.40
2019-01-24T11:53:17.377Z,23.80
2019-01-24T11:55:48.303Z,23.33
2019-01-24T11:58:19.517Z,23.60
2019-01-24T12:00:52.774Z,23.93
2019-01-24T12:03:23.993Z,22.83
2019-01-24T12:05:54.997Z,20.27
2019-01-24T12:08:26.337Z,20.63
2019-01-24T12:10:57.274Z,20.57
2019-01-24T12:13:28.206Z,18.27
2019-01-24T12:15:59.488Z,19.60
2019-01-24T12:18:30.393Z,19.03
2019-01-24T12:21:01.363Z,19.07
2019-01-24T12:23:32.363Z,19.10
2019-01-24T12:26:03.388Z,18.50
2019-01-24T12:28:34.630Z,19.00
2019-01-24T12:31:05.593Z,20.10
2019-01-24T12:33:36.523Z,19.00
2019-01-24T12:36:07.623Z,19.73
2019-01-24T12:38:38.593Z,18.13
2019-01-24T12:41:09.550Z,18.47
2019-01-24T12:43:40.489Z,17.60
2019-01-24T12:46:11.455Z,18.80
2019-01-24T12:48:42.726Z,18.50
2019-01-24T12:51:13.670Z,18.23
2019-01-24T12:53:44.646Z,19.47
2019-01-24T12:56:15.631Z,17.70
2019-01-24T12:58:46.571Z,19.63
2019-01-24T13:01:18.209Z,18.00
2019-01-24T13:03:49.140Z,19.60
2019-01-24T13:06:20.239Z,15.03
2019-01-24T13:08:51.495Z,17.30
2019-01-24T13:11:22.689Z,16.73
2019-01-24T13:13:53.612Z,17.57
2019-01-24T13:16:24.614Z,16.67
2019-01-24T13:18:55.554Z,16.07
2019-01-24T13:21:27.867Z,18.07
2019-01-24T13:23:59.176Z,18.40
2019-01-24T13:26:30.105Z,17.77
2019-01-24T13:29:01.021Z,17.10
2019-01-24T13:31:32.086Z,17.23
2019-01-24T13:34:03.020Z,17.53
2019-01-24T13:36:33.940Z,18.13
2019-01-24T13:39:10.133Z,17.27
2019-01-24T13:41:42.561Z,22.70
2019-01-24T13:44:14.945Z,18.00
2019-01-24T13:46:46.158Z,18.30
2019-01-24T13:49:17.057Z,20.97
2019-01-24T13:51:48.299Z,18.83
2019-01-24T13:54:19.815Z,28.80
2019-01-24T13:56:50.745Z,26.80
2019-01-24T13:59:22.044Z,25.03
2019-01-24T14:01:53.074Z,21.73
2019-01-24T14:04:39.564Z,17.13
2019-01-24T14:07:11.135Z,17.63
2019-01-24T14:09:42.037Z,18.03
2019-01-24T14:12:13.178Z,16.00
2019-01-24T14:14:46.192Z,19.83
2019-01-24T14:17:17.188Z,20.57
2019-01-24T14:19:48.141Z,19.53
2019-01-24T14:22:19.084Z,17.33
2019-01-24T14:24:50.622Z,18.30
2019-01-24T14:27:21.581Z,16.97
2019-01-24T14:29:52.502Z,18.20
2019-01-24T14:32:23.572Z,18.17
2019-01-24T14:34:56.504Z,19.23
2019-01-24T14:37:27.525Z,17.50
2019-01-24T14:39:58.856Z,16.90
2019-01-24T14:42:30.086Z,16.23
2019-01-24T14:45:01.087Z,17.80
2019-01-24T14:47:32.054Z,19.17
2019-01-24T14:50:02.985Z,18.63
2019-01-24T14:52:33.947Z,17.47
2019-01-24T14:55:05.562Z,17.83
2019-01-24T14:57:36.500Z,17.77
2019-01-24T15:00:42.983Z,17.83
2019-01-24T15:03:13.904Z,18.17
2019-01-24T15:05:45.124Z,18.07
2019-01-24T15:08:16.115Z,19.60
2019-01-24T15:10:47.009Z,21.63
2019-01-24T15:13:18.205Z,22.10
2019-01-24T15:15:49.166Z,18.97
2019-01-24T15:18:20.235Z,19.37
2019-01-24T15:20:51.242Z,20.10
2019-01-24T15:23:22.237Z,26.27
2019-01-24T15:25:53.189Z,23.73
2019-01-24T15:28:24.167Z,23.57
2019-01-24T15:30:55.281Z,19.60
2019-01-24T15:33:26.560Z,19.00
2019-01-24T15:35:57.599Z,20.07
2019-01-24T15:38:28.595Z,20.43
2019-01-24T15:40:59.609Z,21.23
2019-01-24T15:43:30.509Z,19.70
2019-01-24T15:46:01.700Z,22.53
2019-01-24T15:48:32.754Z,25.00
2019-01-24T15:51:03.700Z,22.00
2019-01-24T15:53:34.701Z,24.23
2019-01-24T15:56:05.779Z,21.80
2019-01-24T15:58:36.756Z,22.13
2019-01-24T16:01:07.950Z,17.93
2019-01-24T16:03:39.194Z,21.53
2019-01-24T16:06:10.126Z,23.93
2019-01-24T16:08:41.452Z,26.00
2019-01-24T16:11:12.515Z,19.53
2019-01-24T16:13:43.511Z,18.93
2019-01-24T16:16:14.635Z,20.80
2019-01-24T16:18:45.960Z,18.20
2019-01-24T16:21:16.887Z,20.77
2019-01-24T16:23:48.503Z,22.47
2019-01-24T16:26:19.426Z,19.93
2019-01-24T16:28:50.406Z,20.40
2019-01-24T16:31:21.643Z,20.33
2019-01-24T16:33:52.884Z,20.27
2019-01-24T16:36:23.811Z,19.00
2019-01-24T16:38:54.809Z,20.27
2019-01-24T16:41:26.003Z,21.00
2019-01-24T16:43:58.724Z,21.60
2019-01-24T16:46:29.715Z,21.60
2019-01-24T16:49:00.773Z,19.93
2019-01-24T16:51:31.792Z,21.80
2019-01-24T16:54:02.853Z,22.90
2019-01-24T16:56:33.809Z,21.97
2019-01-24T16:59:08.627Z,21.63
2019-01-24T17:01:39.682Z,22.70
2019-01-24T17:04:10.689Z,22.07
2019-01-24T17:06:41.670Z,20.83
2019-01-24T17:09:13.422Z,19.60
2019-01-24T17:11:44.354Z,21.80
2019-01-24T17:14:22.143Z,22.17
2019-01-24T17:16:47.984Z,22.87
2019-01-24T17:19:18.917Z,21.80
2019-01-24T17:21:49.869Z,22.97
2019-01-24T17:24:22.472Z,22.50
2019-01-24T17:26:53.865Z,22.43
2019-01-24T17:29:24.790Z,29.10
2019-01-24T17:31:55.765Z,23.63
2019-01-24T17:34:26.728Z,23.23
2019-01-24T17:36:57.697Z,25.10
2019-01-24T17:39:28.680Z,25.43
2019-01-24T17:41:59.751Z,23.40
2019-01-24T17:44:30.658Z,23.97
2019-01-24T17:47:01.588Z,23.80
2019-01-24T17:49:32.595Z,22.60
2019-01-24T17:52:03.619Z,25.67
2019-01-24T17:54:34.512Z,23.93
2019-01-24T17:57:05.510Z,25.27
2019-01-24T17:59:37.567Z,25.73
2019-01-24T18:02:08.677Z,23.97
2019-01-24T18:04:41.441Z,23.20
2019-01-24T18:07:12.376Z,25.17
2019-01-24T18:09:43.291Z,22.13
2019-01-24T18:12:14.601Z,22.20
2019-01-24T18:14:45.505Z,23.53
2019-01-24T18:17:19.295Z,23.87
2019-01-24T18:19:50.208Z,24.13
2019-01-24T18:22:23.202Z,22.37
2019-01-24T18:24:54.167Z,23.23
2019-01-24T18:27:25.740Z,22.17
2019-01-24T18:29:56.714Z,23.60
2019-01-24T18:32:28.428Z,21.00
2019-01-24T18:34:59.363Z,27.43
2019-01-24T18:37:32.509Z,27.40
2019-01-24T18:40:03.961Z,24.20
2019-01-24T18:42:35.497Z,22.60
2019-01-24T18:45:09.595Z,24.53
2019-01-24T18:47:40.881Z,22.90
2019-01-24T18:50:17.001Z,25.10
2019-01-24T18:52:51.954Z,22.90
2019-01-24T18:55:23.291Z,23.17
2019-01-24T18:58:01.467Z,21.83
2019-01-24T19:00:37.933Z,22.97
2019-01-24T19:03:10.238Z,23.30
2019-01-24T19:05:43.818Z,26.30
2019-01-24T19:08:15.236Z,22.50
2019-01-24T19:10:47.803Z,25.07
2019-01-24T19:13:19.215Z,30.17
2019-01-24T19:15:52.241Z,28.10
2019-01-24T19:18:24.414Z,24.77
2019-01-24T19:20:56.300Z,26.20
2019-01-24T19:23:27.353Z,35.97
2019-01-24T19:25:58.808Z,26.30
2019-01-24T19:28:29.713Z,25.10
2019-01-24T19:31:01.170Z,24.10
2019-01-24T19:33:33.955Z,26.23
2019-01-24T19:36:04.992Z,25.77
2019-01-24T19:38:35.977Z,28.17
2019-01-24T19:41:07.425Z,25.30
2019-01-24T19:43:38.433Z,36.97
2019-01-24T19:46:09.983Z,45.73
2019-01-24T19:48:41.466Z,28.17
2019-01-24T19:51:16.104Z,26.07
2019-01-24T19:53:47.922Z,25.53
2019-01-24T19:56:18.966Z,48.47
2019-01-24T19:58:50.009Z,38.90
2019-01-24T20:01:21.256Z,50.80
2019-01-24T20:03:52.544Z,41.30
2019-01-24T20:06:23.597Z,28.83
2019-01-24T20:09:00.196Z,35.40
2019-01-24T20:11:28.034Z,32.17
2019-01-24T20:13:59.639Z,34.77
2019-01-24T20:16:30.565Z,29.83
2019-01-24T20:19:02.840Z,30.90
2019-01-24T20:21:33.862Z,32.93
2019-01-24T20:24:06.355Z,39.83
2019-01-24T20:26:37.384Z,26.43
2019-01-24T20:29:10.414Z,28.00
2019-01-24T20:31:41.433Z,24.83
2019-01-24T20:34:13.729Z,34.27
2019-01-24T20:36:44.891Z,24.60
2019-01-24T20:39:15.834Z,25.70
2019-01-24T20:41:46.782Z,30.50
2019-01-24T20:44:18.122Z,26.37
2019-01-24T20:46:49.446Z,27.17
2019-01-24T20:49:20.571Z,24.43
2019-01-24T20:51:52.386Z,26.80
2019-01-24T20:54:23.952Z,25.53
2019-01-24T20:56:55.093Z,26.60
2019-01-24T20:59:26.654Z,26.40
2019-01-24T21:01:57.722Z,26.97
2019-01-24T21:04:28.689Z,28.53
2019-01-24T21:06:59.978Z,25.93
2019-01-24T21:09:30.993Z,24.57
2019-01-24T21:12:02.554Z,26.63
2019-01-24T21:14:33.553Z,26.77
2019-01-24T21:17:04.904Z,26.60
2019-01-24T21:19:35.991Z,27.33
2019-01-24T21:22:09.640Z,28.40
2019-01-24T21:24:42.541Z,28.07
2019-01-24T21:27:13.592Z,28.50
2019-01-24T21:29:44.807Z,30.20
2019-01-24T21:32:15.752Z,31.10
2019-01-24T21:34:46.754Z,26.80
2019-01-24T21:37:17.684Z,28.73
2019-01-24T21:39:48.668Z,30.90
2019-01-24T21:42:19.575Z,29.30
2019-01-24T21:44:50.496Z,27.97
2019-01-24T21:47:21.505Z,28.80
2019-01-24T21:49:52.444Z,28.27
2019-01-24T21:52:23.476Z,27.60
2019-01-24T21:54:54.407Z,28.80
2019-01-24T21:57:25.354Z,29.00
2019-01-24T21:59:56.310Z,27.70
2019-01-24T22:02:27.369Z,28.30
2019-01-24T22:04:58.324Z,31.13
2019-01-24T22:07:29.544Z,28.03
2019-01-24T22:10:00.457Z,29.87
2019-01-24T22:12:31.711Z,29.23
2019-01-24T22:15:02.679Z,29.60
2019-01-24T22:17:33.703Z,27.50
2019-01-24T22:20:05.781Z,29.23
2019-01-24T22:22:37.054Z,28.20
2019-01-24T22:25:11.976Z,31.20
2019-01-24T22:27:42.894Z,30.10
2019-01-24T22:30:19.249Z,27.80
2019-01-24T22:32:50.158Z,26.87
2019-01-24T22:35:21.073Z,30.20
2019-01-24T22:37:52.105Z,32.20
2019-01-24T22:40:23.357Z,30.90
2019-01-24T22:42:54.316Z,29.50
2019-01-24T22:45:26.190Z,30.30
2019-01-24T22:47:57.137Z,31.47
2019-01-24T22:50:28.308Z,30.20
2019-01-24T22:52:59.243Z,31.80
2019-01-24T22:55:30.562Z,30.87
2019-01-24T22:58:01.551Z,31.90
2019-01-24T23:00:48.837Z,31.60
2019-01-24T23:03:27.162Z,31.07
2019-01-24T23:05:58.227Z,31.70
2019-01-24T23:08:29.231Z,30.87
2019-01-24T23:11:00.268Z,31.00
2019-01-24T23:13:31.198Z,29.60
2019-01-24T23:16:02.423Z,31.07
2019-01-24T23:18:33.358Z,31.57
2019-01-24T23:21:04.889Z,30.40
2019-01-24T23:23:35.811Z,32.80
2019-01-24T23:26:07.200Z,32.33
2019-01-24T23:28:38.397Z,32.27
2019-01-24T23:31:09.671Z,30.47
2019-01-24T23:33:40.869Z,32.03
2019-01-24T23:36:11.958Z,29.47
2019-01-24T23:38:43.613Z,30.70
2019-01-24T23:41:14.810Z,32.33
2019-01-24T23:43:45.768Z,29.00
2019-01-24T23:46:16.683Z,26.83
2019-01-24T23:48:47.593Z,29.33
2019-01-24T23:51:18.572Z,30.43
2019-01-24T23:53:49.514Z,30.20
2019-01-24T23:56:20.545Z,29.27
2019-01-24T23:58:51.804Z,31.17
